sensor_id;sensor_type;location;lat;lon;timestamp;pressure;altitude;pressure_sealevel;temperature;humidity
61814;BME280;57055;-35.296;149.168;2023-04-27T00:00:07;95953.87;;;12.40;61.37
61814;BME280;57055;-35.296;149.168;2023-04-27T00:02:37;95948.82;;;12.46;60.90
61814;BME280;57055;-35.296;149.168;2023-04-27T00:05:06;95944.25;;;12.55;60.42
61814;BME280;57055;-35.296;149.168;2023-04-27T00:07:35;95947.46;;;12.46;60.08
61814;BME280;57055;-35.296;149.168;2023-04-27T00:10:04;95942.52;;;12.34;59.88
61814;BME280;57055;-35.296;149.168;2023-04-27T00:12:33;95945.68;;;12.72;59.81
61814;BME280;57055;-35.296;149.168;2023-04-27T00:15:03;95941.71;;;12.88;59.16
61814;BME280;57055;-35.296;149.168;2023-04-27T00:17:32;95936.03;;;12.72;58.89
61814;BME280;57055;-35.296;149.168;2023-04-27T00:20:00;95934.07;;;12.72;58.98
61814;BME280;57055;-35.296;149.168;2023-04-27T00:22:29;95929.40;;;12.79;58.69
61814;BME280;57055;-35.296;149.168;2023-04-27T00:24:58;95925.36;;;12.96;58.51
61814;BME280;57055;-35.296;149.168;2023-04-27T00:27:27;95915.64;;;13.03;58.17
61814;BME280;57055;-35.296;149.168;2023-04-27T00:29:56;95905.29;;;13.13;58.10
61814;BME280;57055;-35.296;149.168;2023-04-27T00:32:25;95901.04;;;13.32;58.09
61814;BME280;57055;-35.296;149.168;2023-04-27T00:34:54;95900.79;;;13.39;58.13
61814;BME280;57055;-35.296;149.168;2023-04-27T00:37:22;95889.44;;;13.54;58.14
61814;BME280;57055;-35.296;149.168;2023-04-27T00:39:51;95886.70;;;13.59;57.69
61814;BME280;57055;-35.296;149.168;2023-04-27T00:42:20;95883.98;;;13.62;57.55
61814;BME280;57055;-35.296;149.168;2023-04-27T00:44:49;95878.80;;;13.73;57.50
61814;BME280;57055;-35.296;149.168;2023-04-27T00:47:17;95875.96;;;13.74;57.42
61814;BME280;57055;-35.296;149.168;2023-04-27T00:49:47;95873.44;;;13.64;57.30
61814;BME280;57055;-35.296;149.168;2023-04-27T00:52:16;95862.36;;;13.69;57.21
61814;BME280;57055;-35.296;149.168;2023-04-27T00:54:51;95852.43;;;14.04;55.71
61814;BME280;57055;-35.296;149.168;2023-04-27T00:57:19;95845.29;;;14.00;55.85
61814;BME280;57055;-35.296;149.168;2023-04-27T00:59:48;95838.01;;;13.93;55.93
61814;BME280;57055;-35.296;149.168;2023-04-27T01:02:17;95829.14;;;14.36;54.06
61814;BME280;57055;-35.296;149.168;2023-04-27T01:04:47;95827.90;;;14.50;53.78
61814;BME280;57055;-35.296;149.168;2023-04-27T01:07:17;95827.80;;;14.38;53.78
61814;BME280;57055;-35.296;149.168;2023-04-27T01:09:46;95821.90;;;14.46;53.12
61814;BME280;57055;-35.296;149.168;2023-04-27T01:12:15;95814.06;;;14.67;52.90
61814;BME280;57055;-35.296;149.168;2023-04-27T01:14:44;95815.70;;;14.79;52.95
61814;BME280;57055;-35.296;149.168;2023-04-27T01:17:14;95802.56;;;14.68;53.02
61814;BME280;57055;-35.296;149.168;2023-04-27T01:19:43;95803.36;;;15.04;52.21
61814;BME280;57055;-35.296;149.168;2023-04-27T01:22:12;95791.42;;;14.69;51.50
61814;BME280;57055;-35.296;149.168;2023-04-27T01:24:41;95781.57;;;15.15;51.33
61814;BME280;57055;-35.296;149.168;2023-04-27T01:27:10;95782.49;;;15.00;51.77
61814;BME280;57055;-35.296;149.168;2023-04-27T01:29:39;95766.05;;;15.24;51.40
61814;BME280;57055;-35.296;149.168;2023-04-27T01:32:08;95772.67;;;15.28;51.23
61814;BME280;57055;-35.296;149.168;2023-04-27T01:34:36;95763.22;;;15.29;51.07
61814;BME280;57055;-35.296;149.168;2023-04-27T01:37:05;95759.93;;;15.60;51.03
61814;BME280;57055;-35.296;149.168;2023-04-27T01:39:34;95762.23;;;15.30;50.95
61814;BME280;57055;-35.296;149.168;2023-04-27T01:42:03;95754.66;;;15.63;50.63
61814;BME280;57055;-35.296;149.168;2023-04-27T01:44:32;95756.07;;;15.52;50.77
61814;BME280;57055;-35.296;149.168;2023-04-27T01:47:01;95747.18;;;15.77;50.54
61814;BME280;57055;-35.296;149.168;2023-04-27T01:49:30;95742.37;;;15.62;50.62
61814;BME280;57055;-35.296;149.168;2023-04-27T01:51:58;95738.03;;;15.92;50.22
61814;BME280;57055;-35.296;149.168;2023-04-27T01:54:27;95725.06;;;16.05;49.61
61814;BME280;57055;-35.296;149.168;2023-04-27T01:56:55;95719.44;;;16.08;50.02
61814;BME280;57055;-35.296;149.168;2023-04-27T01:59:24;95713.87;;;15.92;49.74
61814;BME280;57055;-35.296;149.168;2023-04-27T02:01:53;95710.63;;;16.07;50.00
61814;BME280;57055;-35.296;149.168;2023-04-27T02:04:22;95712.46;;;15.86;50.00
61814;BME280;57055;-35.296;149.168;2023-04-27T02:06:50;95703.43;;;16.17;49.93
61814;BME280;57055;-35.296;149.168;2023-04-27T02:09:19;95703.91;;;16.11;49.52
61814;BME280;57055;-35.296;149.168;2023-04-27T02:11:47;95700.45;;;16.07;49.38
61814;BME280;57055;-35.296;149.168;2023-04-27T02:14:16;95692.96;;;16.31;49.73
61814;BME280;57055;-35.296;149.168;2023-04-27T02:16:45;95689.66;;;16.43;49.57
61814;BME280;57055;-35.296;149.168;2023-04-27T02:19:14;95685.80;;;16.45;49.53
61814;BME280;57055;-35.296;149.168;2023-04-27T02:21:43;95682.34;;;16.32;48.86
61814;BME280;57055;-35.296;149.168;2023-04-27T02:24:11;95676.22;;;16.71;48.93
61814;BME280;57055;-35.296;149.168;2023-04-27T02:26:40;95675.02;;;16.68;48.49
61814;BME280;57055;-35.296;149.168;2023-04-27T02:29:08;95673.67;;;16.85;48.71
61814;BME280;57055;-35.296;149.168;2023-04-27T02:31:37;95666.92;;;16.88;48.50
61814;BME280;57055;-35.296;149.168;2023-04-27T02:34:05;95665.71;;;16.92;48.49
61814;BME280;57055;-35.296;149.168;2023-04-27T02:36:34;95660.58;;;16.90;48.15
61814;BME280;57055;-35.296;149.168;2023-04-27T02:39:02;95655.01;;;17.07;48.11
61814;BME280;57055;-35.296;149.168;2023-04-27T02:41:32;95649.30;;;17.32;48.22
61814;BME280;57055;-35.296;149.168;2023-04-27T02:44:00;95648.36;;;17.05;48.10
61814;BME280;57055;-35.296;149.168;2023-04-27T02:46:29;95638.85;;;17.05;48.34
61814;BME280;57055;-35.296;149.168;2023-04-27T02:48:57;95635.12;;;17.03;47.94
61814;BME280;57055;-35.296;149.168;2023-04-27T02:51:26;95628.11;;;16.79;48.16
61814;BME280;57055;-35.296;149.168;2023-04-27T02:53:54;95625.34;;;16.91;48.50
61814;BME280;57055;-35.296;149.168;2023-04-27T02:56:23;95615.99;;;17.17;48.71
61814;BME280;57055;-35.296;149.168;2023-04-27T02:58:52;95608.65;;;17.02;48.87
61814;BME280;57055;-35.296;149.168;2023-04-27T03:01:20;95605.18;;;17.08;48.70
61814;BME280;57055;-35.296;149.168;2023-04-27T03:03:49;95606.34;;;17.13;48.43
61814;BME280;57055;-35.296;149.168;2023-04-27T03:06:17;95599.74;;;17.33;48.08
61814;BME280;57055;-35.296;149.168;2023-04-27T03:08:46;95600.44;;;17.22;48.30
61814;BME280;57055;-35.296;149.168;2023-04-27T03:11:14;95592.93;;;17.59;47.55
61814;BME280;57055;-35.296;149.168;2023-04-27T03:13:43;95598.54;;;17.64;47.60
61814;BME280;57055;-35.296;149.168;2023-04-27T03:16:12;95597.09;;;17.76;47.57
61814;BME280;57055;-35.296;149.168;2023-04-27T03:18:41;95590.47;;;17.73;47.75
61814;BME280;57055;-35.296;149.168;2023-04-27T03:21:10;95588.18;;;17.59;47.86
61814;BME280;57055;-35.296;149.168;2023-04-27T03:23:40;95586.56;;;17.73;47.08
61814;BME280;57055;-35.296;149.168;2023-04-27T03:26:10;95583.71;;;17.66;47.04
61814;BME280;57055;-35.296;149.168;2023-04-27T03:28:40;95577.95;;;17.56;46.96
61814;BME280;57055;-35.296;149.168;2023-04-27T03:31:10;95578.73;;;17.98;46.85
61814;BME280;57055;-35.296;149.168;2023-04-27T03:33:40;95575.50;;;18.01;46.95
61814;BME280;57055;-35.296;149.168;2023-04-27T03:36:09;95578.06;;;17.58;46.73
61814;BME280;57055;-35.296;149.168;2023-04-27T03:38:38;95574.01;;;17.95;46.56
61814;BME280;57055;-35.296;149.168;2023-04-27T03:41:07;95571.21;;;17.62;46.39
61814;BME280;57055;-35.296;149.168;2023-04-27T03:43:35;95569.37;;;17.53;46.05
61814;BME280;57055;-35.296;149.168;2023-04-27T03:46:04;95556.32;;;17.93;45.57
61814;BME280;57055;-35.296;149.168;2023-04-27T03:48:33;95551.76;;;17.70;45.62
61814;BME280;57055;-35.296;149.168;2023-04-27T03:51:01;95548.01;;;17.67;45.30
61814;BME280;57055;-35.296;149.168;2023-04-27T03:53:30;95549.17;;;17.57;45.44
61814;BME280;57055;-35.296;149.168;2023-04-27T03:55:58;95547.31;;;17.89;46.13
61814;BME280;57055;-35.296;149.168;2023-04-27T03:58:30;95547.93;;;17.63;45.95
61814;BME280;57055;-35.296;149.168;2023-04-27T04:00:59;95549.92;;;17.76;45.42
61814;BME280;57055;-35.296;149.168;2023-04-27T04:03:27;95546.23;;;17.99;45.14
61814;BME280;57055;-35.296;149.168;2023-04-27T04:05:56;95540.88;;;17.60;45.10
61814;BME280;57055;-35.296;149.168;2023-04-27T04:08:24;95539.17;;;17.73;44.68
61814;BME280;57055;-35.296;149.168;2023-04-27T04:10:53;95546.65;;;18.14;44.98
61814;BME280;57055;-35.296;149.168;2023-04-27T04:13:21;95544.76;;;17.70;45.16
61814;BME280;57055;-35.296;149.168;2023-04-27T04:15:57;95539.09;;;17.76;45.50
61814;BME280;57055;-35.296;149.168;2023-04-27T04:18:27;95533.50;;;17.14;45.86
61814;BME280;57055;-35.296;149.168;2023-04-27T04:20:56;95530.18;;;17.19;46.42
61814;BME280;57055;-35.296;149.168;2023-04-27T04:23:25;95524.04;;;17.35;46.66
61814;BME280;57055;-35.296;149.168;2023-04-27T04:25:54;95519.80;;;17.11;46.94
61814;BME280;57055;-35.296;149.168;2023-04-27T04:28:23;95517.34;;;17.06;46.62
61814;BME280;57055;-35.296;149.168;2023-04-27T04:30:52;95517.58;;;17.11;46.96
61814;BME280;57055;-35.296;149.168;2023-04-27T04:33:21;95520.01;;;17.19;45.62
61814;BME280;57055;-35.296;149.168;2023-04-27T04:35:49;95519.59;;;17.23;45.03
61814;BME280;57055;-35.296;149.168;2023-04-27T04:38:18;95522.15;;;17.35;44.85
61814;BME280;57055;-35.296;149.168;2023-04-27T04:40:46;95519.83;;;17.41;44.45
61814;BME280;57055;-35.296;149.168;2023-04-27T04:43:15;95522.49;;;17.27;44.62
61814;BME280;57055;-35.296;149.168;2023-04-27T04:45:43;95523.51;;;17.52;44.63
61814;BME280;57055;-35.296;149.168;2023-04-27T04:48:14;95528.70;;;17.50;44.93
61814;BME280;57055;-35.296;149.168;2023-04-27T04:50:42;95518.47;;;17.37;45.08
61814;BME280;57055;-35.296;149.168;2023-04-27T04:53:11;95521.95;;;17.25;44.57
61814;BME280;57055;-35.296;149.168;2023-04-27T04:55:39;95519.25;;;16.90;44.96
61814;BME280;57055;-35.296;149.168;2023-04-27T04:58:08;95516.88;;;17.10;45.24
61814;BME280;57055;-35.296;149.168;2023-04-27T05:00:37;95522.05;;;17.07;45.56
61814;BME280;57055;-35.296;149.168;2023-04-27T05:03:06;95526.09;;;16.89;45.70
61814;BME280;57055;-35.296;149.168;2023-04-27T05:05:34;95528.49;;;17.21;45.63
61814;BME280;57055;-35.296;149.168;2023-04-27T05:08:03;95529.12;;;17.44;46.07
61814;BME280;57055;-35.296;149.168;2023-04-27T05:10:32;95524.56;;;17.02;46.04
61814;BME280;57055;-35.296;149.168;2023-04-27T05:13:01;95524.04;;;17.21;46.53
61814;BME280;57055;-35.296;149.168;2023-04-27T05:15:29;95518.16;;;17.25;46.51
61814;BME280;57055;-35.296;149.168;2023-04-27T05:17:58;95514.71;;;17.28;46.63
61814;BME280;57055;-35.296;149.168;2023-04-27T05:20:27;95519.83;;;17.16;46.40
61814;BME280;57055;-35.296;149.168;2023-04-27T05:22:55;95525.59;;;17.34;45.28
61814;BME280;57055;-35.296;149.168;2023-04-27T05:25:24;95528.03;;;17.59;44.79
61814;BME280;57055;-35.296;149.168;2023-04-27T05:27:52;95530.68;;;17.60;44.33
61814;BME280;57055;-35.296;149.168;2023-04-27T05:30:21;95531.54;;;17.53;44.28
61814;BME280;57055;-35.296;149.168;2023-04-27T05:32:50;95530.68;;;17.44;43.90
61814;BME280;57055;-35.296;149.168;2023-04-27T05:35:19;95526.58;;;17.33;43.97
61814;BME280;57055;-35.296;149.168;2023-04-27T05:37:48;95522.48;;;17.50;43.51
61814;BME280;57055;-35.296;149.168;2023-04-27T05:40:17;95518.41;;;17.20;43.63
61814;BME280;57055;-35.296;149.168;2023-04-27T05:42:47;95514.27;;;17.13;43.88
61814;BME280;57055;-35.296;149.168;2023-04-27T05:45:16;95512.12;;;17.09;43.80
61814;BME280;57055;-35.296;149.168;2023-04-27T05:47:45;95509.50;;;17.25;43.72
61814;BME280;57055;-35.296;149.168;2023-04-27T05:50:14;95509.59;;;17.00;44.06
61814;BME280;57055;-35.296;149.168;2023-04-27T05:52:43;95510.49;;;17.22;44.54
61814;BME280;57055;-35.296;149.168;2023-04-27T05:55:11;95509.98;;;17.10;44.27
61814;BME280;57055;-35.296;149.168;2023-04-27T05:57:40;95512.49;;;16.91;44.05
61814;BME280;57055;-35.296;149.168;2023-04-27T06:00:10;95510.58;;;17.01;43.17
61814;BME280;57055;-35.296;149.168;2023-04-27T06:02:39;95513.10;;;17.00;43.25
61814;BME280;57055;-35.296;149.168;2023-04-27T06:05:09;95514.82;;;17.24;43.19
61814;BME280;57055;-35.296;149.168;2023-04-27T06:07:37;95512.74;;;17.02;43.47
61814;BME280;57055;-35.296;149.168;2023-04-27T06:10:07;95513.45;;;17.27;43.92
61814;BME280;57055;-35.296;149.168;2023-04-27T06:12:37;95516.87;;;16.91;43.47
61814;BME280;57055;-35.296;149.168;2023-04-27T06:15:07;95517.34;;;17.06;43.38
61814;BME280;57055;-35.296;149.168;2023-04-27T06:17:36;95519.44;;;16.99;43.43
61814;BME280;57055;-35.296;149.168;2023-04-27T06:20:06;95514.55;;;16.96;43.78
61814;BME280;57055;-35.296;149.168;2023-04-27T06:22:35;95519.14;;;16.90;44.21
61814;BME280;57055;-35.296;149.168;2023-04-27T06:25:04;95514.85;;;16.86;44.37
61814;BME280;57055;-35.296;149.168;2023-04-27T06:27:33;95516.76;;;16.79;44.37
61814;BME280;57055;-35.296;149.168;2023-04-27T06:30:02;95513.69;;;16.76;44.55
61814;BME280;57055;-35.296;149.168;2023-04-27T06:32:32;95516.07;;;16.91;44.57
61814;BME280;57055;-35.296;149.168;2023-04-27T06:35:00;95511.10;;;16.84;44.74
61814;BME280;57055;-35.296;149.168;2023-04-27T06:37:29;95511.96;;;16.58;44.92
61814;BME280;57055;-35.296;149.168;2023-04-27T06:39:57;95513.00;;;16.53;45.17
61814;BME280;57055;-35.296;149.168;2023-04-27T06:42:26;95514.40;;;16.76;45.26
61814;BME280;57055;-35.296;149.168;2023-04-27T06:44:54;95516.38;;;16.71;45.40
61814;BME280;57055;-35.296;149.168;2023-04-27T06:47:23;95512.31;;;16.47;45.60
61814;BME280;57055;-35.296;149.168;2023-04-27T06:49:52;95510.27;;;16.67;45.73
61814;BME280;57055;-35.296;149.168;2023-04-27T06:52:20;95509.71;;;16.63;46.39
61814;BME280;57055;-35.296;149.168;2023-04-27T06:54:49;95507.89;;;16.61;46.65
61814;BME280;57055;-35.296;149.168;2023-04-27T06:57:17;95513.59;;;16.62;46.73
61814;BME280;57055;-35.296;149.168;2023-04-27T06:59:46;95511.70;;;16.52;47.01
61814;BME280;57055;-35.296;149.168;2023-04-27T07:02:15;95511.01;;;16.66;47.77
61814;BME280;57055;-35.296;149.168;2023-04-27T07:04:44;95514.73;;;16.27;47.95
61814;BME280;57055;-35.296;149.168;2023-04-27T07:07:13;95511.16;;;16.06;48.70
61814;BME280;57055;-35.296;149.168;2023-04-27T07:09:42;95509.94;;;16.19;49.05
61814;BME280;57055;-35.296;149.168;2023-04-27T07:12:10;95512.73;;;16.14;49.20
61814;BME280;57055;-35.296;149.168;2023-04-27T07:14:39;95516.62;;;16.10;49.23
61814;BME280;57055;-35.296;149.168;2023-04-27T07:17:08;95524.11;;;16.11;48.73
61814;BME280;57055;-35.296;149.168;2023-04-27T07:19:37;95530.83;;;16.09;48.74
61814;BME280;57055;-35.296;149.168;2023-04-27T07:22:06;95532.64;;;15.96;49.00
61814;BME280;57055;-35.296;149.168;2023-04-27T07:24:34;95530.47;;;15.80;49.48
61814;BME280;57055;-35.296;149.168;2023-04-27T07:27:03;95533.25;;;15.78;49.48
61814;BME280;57055;-35.296;149.168;2023-04-27T07:29:32;95535.94;;;15.63;49.81
61814;BME280;57055;-35.296;149.168;2023-04-27T07:32:01;95531.55;;;15.66;50.21
61814;BME280;57055;-35.296;149.168;2023-04-27T07:34:32;95529.44;;;15.54;50.43
61814;BME280;57055;-35.296;149.168;2023-04-27T07:37:01;95526.18;;;15.39;50.77
61814;BME280;57055;-35.296;149.168;2023-04-27T07:39:30;95529.13;;;15.25;51.17
61814;BME280;57055;-35.296;149.168;2023-04-27T07:41:59;95529.00;;;15.11;51.59
61814;BME280;57055;-35.296;149.168;2023-04-27T07:44:27;95526.29;;;15.07;51.80
61814;BME280;57055;-35.296;149.168;2023-04-27T07:46:57;95532.72;;;15.28;52.18
61814;BME280;57055;-35.296;149.168;2023-04-27T07:49:26;95533.78;;;15.17;52.55
61814;BME280;57055;-35.296;149.168;2023-04-27T07:51:55;95532.13;;;15.10;52.66
61814;BME280;57055;-35.296;149.168;2023-04-27T07:54:23;95529.59;;;15.00;52.75
61814;BME280;57055;-35.296;149.168;2023-04-27T07:56:52;95523.60;;;14.66;52.81
61814;BME280;57055;-35.296;149.168;2023-04-27T07:59:21;95522.94;;;14.54;53.14
61814;BME280;57055;-35.296;149.168;2023-04-27T08:01:49;95523.12;;;14.69;53.53
61814;BME280;57055;-35.296;149.168;2023-04-27T08:04:18;95523.26;;;14.62;53.62
61814;BME280;57055;-35.296;149.168;2023-04-27T08:06:47;95522.54;;;14.73;53.94
61814;BME280;57055;-35.296;149.168;2023-04-27T08:09:16;95516.57;;;14.43;54.12
61814;BME280;57055;-35.296;149.168;2023-04-27T08:11:46;95514.96;;;14.08;54.29
61814;BME280;57055;-35.296;149.168;2023-04-27T08:14:14;95515.53;;;14.33;54.22
61814;BME280;57055;-35.296;149.168;2023-04-27T08:16:43;95520.74;;;14.50;54.31
61814;BME280;57055;-35.296;149.168;2023-04-27T08:19:12;95517.12;;;14.24;54.37
61814;BME280;57055;-35.296;149.168;2023-04-27T08:21:42;95523.97;;;14.19;54.47
61814;BME280;57055;-35.296;149.168;2023-04-27T08:24:10;95526.80;;;14.14;54.65
61814;BME280;57055;-35.296;149.168;2023-04-27T08:26:40;95527.75;;;14.04;55.00
61814;BME280;57055;-35.296;149.168;2023-04-27T08:29:09;95527.53;;;14.17;55.19
61814;BME280;57055;-35.296;149.168;2023-04-27T08:31:38;95528.38;;;13.88;55.31
61814;BME280;57055;-35.296;149.168;2023-04-27T08:34:06;95531.28;;;14.04;55.49
61814;BME280;57055;-35.296;149.168;2023-04-27T08:36:35;95529.36;;;13.94;55.65
61814;BME280;57055;-35.296;149.168;2023-04-27T08:39:04;95528.65;;;14.08;55.60
61814;BME280;57055;-35.296;149.168;2023-04-27T08:41:33;95527.12;;;13.95;55.47
61814;BME280;57055;-35.296;149.168;2023-04-27T08:44:02;95525.18;;;13.62;55.60
61814;BME280;57055;-35.296;149.168;2023-04-27T08:46:34;95524.39;;;13.84;55.51
61814;BME280;57055;-35.296;149.168;2023-04-27T08:49:04;95524.54;;;13.62;55.58
61814;BME280;57055;-35.296;149.168;2023-04-27T08:51:34;95524.52;;;13.59;55.56
61814;BME280;57055;-35.296;149.168;2023-04-27T08:54:02;95529.44;;;13.41;55.51
61814;BME280;57055;-35.296;149.168;2023-04-27T08:56:31;95527.44;;;13.26;55.62
61814;BME280;57055;-35.296;149.168;2023-04-27T08:59:01;95528.20;;;13.19;55.74
61814;BME280;57055;-35.296;149.168;2023-04-27T09:01:30;95526.92;;;13.11;55.67
61814;BME280;57055;-35.296;149.168;2023-04-27T09:04:01;95522.98;;;12.90;56.06
61814;BME280;57055;-35.296;149.168;2023-04-27T09:06:32;95522.92;;;12.92;56.22
61814;BME280;57055;-35.296;149.168;2023-04-27T09:09:02;95519.84;;;12.88;56.32
61814;BME280;57055;-35.296;149.168;2023-04-27T09:11:32;95519.60;;;12.86;56.42
61814;BME280;57055;-35.296;149.168;2023-04-27T09:14:03;95522.80;;;12.96;56.75
61814;BME280;57055;-35.296;149.168;2023-04-27T09:16:43;95523.52;;;13.12;56.83
61814;BME280;57055;-35.296;149.168;2023-04-27T09:19:22;95521.29;;;12.96;57.33
61814;BME280;57055;-35.296;149.168;2023-04-27T09:21:50;95522.80;;;12.80;57.35
61814;BME280;57055;-35.296;149.168;2023-04-27T09:24:29;95528.75;;;12.43;57.40
61814;BME280;57055;-35.296;149.168;2023-04-27T09:26:58;95532.98;;;12.50;57.36
61814;BME280;57055;-35.296;149.168;2023-04-27T09:29:35;95535.08;;;12.52;57.59
61814;BME280;57055;-35.296;149.168;2023-04-27T09:32:15;95537.96;;;12.16;57.33
61814;BME280;57055;-35.296;149.168;2023-04-27T09:34:44;95534.39;;;11.90;56.79
61814;BME280;57055;-35.296;149.168;2023-04-27T09:37:13;95535.39;;;12.09;56.82
61814;BME280;57055;-35.296;149.168;2023-04-27T09:39:42;95535.70;;;12.10;56.81
61814;BME280;57055;-35.296;149.168;2023-04-27T09:42:12;95532.74;;;12.13;56.59
61814;BME280;57055;-35.296;149.168;2023-04-27T09:44:41;95533.59;;;12.27;56.13
61814;BME280;57055;-35.296;149.168;2023-04-27T09:47:10;95535.13;;;12.26;56.22
61814;BME280;57055;-35.296;149.168;2023-04-27T09:49:41;95533.51;;;12.20;56.37
61814;BME280;57055;-35.296;149.168;2023-04-27T09:52:10;95535.04;;;12.28;56.31
61814;BME280;57055;-35.296;149.168;2023-04-27T09:54:40;95527.12;;;12.10;56.32
61814;BME280;57055;-35.296;149.168;2023-04-27T09:57:16;95528.23;;;12.43;56.04
61814;BME280;57055;-35.296;149.168;2023-04-27T10:00:02;95526.62;;;12.53;55.72
61814;BME280;57055;-35.296;149.168;2023-04-27T10:02:41;95528.77;;;12.51;56.00
61814;BME280;57055;-35.296;149.168;2023-04-27T10:05:29;95532.58;;;12.45;56.09
61814;BME280;57055;-35.296;149.168;2023-04-27T10:08:04;95538.56;;;12.34;56.87
61814;BME280;57055;-35.296;149.168;2023-04-27T10:10:45;95548.93;;;12.17;57.11
61814;BME280;57055;-35.296;149.168;2023-04-27T10:13:22;95551.17;;;12.10;57.12
61814;BME280;57055;-35.296;149.168;2023-04-27T10:15:51;95548.47;;;12.00;57.68
61814;BME280;57055;-35.296;149.168;2023-04-27T10:18:28;95544.10;;;12.22;58.09
61814;BME280;57055;-35.296;149.168;2023-04-27T10:21:07;95542.82;;;12.24;58.29
61814;BME280;57055;-35.296;149.168;2023-04-27T10:23:45;95543.50;;;12.14;57.83
61814;BME280;57055;-35.296;149.168;2023-04-27T10:26:22;95539.91;;;12.21;57.55
61814;BME280;57055;-35.296;149.168;2023-04-27T10:29:05;95540.24;;;12.26;57.19
61814;BME280;57055;-35.296;149.168;2023-04-27T10:31:34;95539.03;;;12.20;57.44
61814;BME280;57055;-35.296;149.168;2023-04-27T10:34:08;95536.82;;;12.43;57.24
61814;BME280;57055;-35.296;149.168;2023-04-27T10:36:38;95540.40;;;12.22;57.06
61814;BME280;57055;-35.296;149.168;2023-04-27T10:39:22;95537.57;;;11.97;57.09
61814;BME280;57055;-35.296;149.168;2023-04-27T10:42:02;95539.03;;;11.98;57.02
61814;BME280;57055;-35.296;149.168;2023-04-27T10:44:32;95535.27;;;12.09;57.27
61814;BME280;57055;-35.296;149.168;2023-04-27T10:47:10;95528.45;;;12.00;57.29
61814;BME280;57055;-35.296;149.168;2023-04-27T10:49:40;95529.80;;;11.97;57.45
61814;BME280;57055;-35.296;149.168;2023-04-27T10:52:09;95531.33;;;11.85;57.75
61814;BME280;57055;-35.296;149.168;2023-04-27T10:54:38;95540.89;;;12.14;57.28
61814;BME280;57055;-35.296;149.168;2023-04-27T10:57:08;95541.21;;;11.96;57.17
61814;BME280;57055;-35.296;149.168;2023-04-27T10:59:49;95540.65;;;11.87;57.20
61814;BME280;57055;-35.296;149.168;2023-04-27T11:02:25;95543.21;;;11.83;57.29
61814;BME280;57055;-35.296;149.168;2023-04-27T11:04:55;95544.67;;;11.76;57.49
61814;BME280;57055;-35.296;149.168;2023-04-27T11:07:25;95544.08;;;11.61;58.17
61814;BME280;57055;-35.296;149.168;2023-04-27T11:09:55;95544.69;;;11.78;58.85
61814;BME280;57055;-35.296;149.168;2023-04-27T11:12:24;95545.69;;;11.49;59.03
61814;BME280;57055;-35.296;149.168;2023-04-27T11:14:57;95543.13;;;11.58;58.43
61814;BME280;57055;-35.296;149.168;2023-04-27T11:17:30;95543.70;;;11.29;58.80
61814;BME280;57055;-35.296;149.168;2023-04-27T11:20:00;95548.25;;;11.52;58.71
61814;BME280;57055;-35.296;149.168;2023-04-27T11:22:28;95549.10;;;11.30;58.50
61814;BME280;57055;-35.296;149.168;2023-04-27T11:24:57;95549.40;;;11.63;58.82
61814;BME280;57055;-35.296;149.168;2023-04-27T11:27:36;95550.46;;;11.53;58.98
61814;BME280;57055;-35.296;149.168;2023-04-27T11:30:16;95555.15;;;11.47;58.90
61814;BME280;57055;-35.296;149.168;2023-04-27T11:32:46;95554.80;;;11.11;59.18
61814;BME280;57055;-35.296;149.168;2023-04-27T11:35:16;95553.73;;;11.43;58.91
61814;BME280;57055;-35.296;149.168;2023-04-27T11:37:54;95553.11;;;11.36;58.92
61814;BME280;57055;-35.296;149.168;2023-04-27T11:40:24;95546.63;;;11.02;59.13
61814;BME280;57055;-35.296;149.168;2023-04-27T11:42:57;95551.26;;;10.92;59.15
61814;BME280;57055;-35.296;149.168;2023-04-27T11:45:27;95546.27;;;11.24;58.92
61814;BME280;57055;-35.296;149.168;2023-04-27T11:47:58;95551.27;;;10.97;58.49
61814;BME280;57055;-35.296;149.168;2023-04-27T11:50:27;95553.45;;;11.04;58.97
61814;BME280;57055;-35.296;149.168;2023-04-27T11:53:00;95556.16;;;10.88;59.27
61814;BME280;57055;-35.296;149.168;2023-04-27T11:55:29;95552.15;;;10.80;59.33
61814;BME280;57055;-35.296;149.168;2023-04-27T11:58:03;95556.42;;;10.69;59.55
61814;BME280;57055;-35.296;149.168;2023-04-27T12:00:32;95554.06;;;10.66;59.54
61814;BME280;57055;-35.296;149.168;2023-04-27T12:03:00;95555.11;;;10.72;59.22
61814;BME280;57055;-35.296;149.168;2023-04-27T12:05:31;95549.76;;;10.69;59.17
61814;BME280;57055;-35.296;149.168;2023-04-27T12:07:59;95550.35;;;10.69;58.84
61814;BME280;57055;-35.296;149.168;2023-04-27T12:10:29;95551.99;;;10.60;58.90
61814;BME280;57055;-35.296;149.168;2023-04-27T12:12:58;95549.58;;;11.12;58.60
61814;BME280;57055;-35.296;149.168;2023-04-27T12:15:26;95546.22;;;10.57;58.54
61814;BME280;57055;-35.296;149.168;2023-04-27T12:17:55;95543.56;;;10.60;58.74
61814;BME280;57055;-35.296;149.168;2023-04-27T12:20:24;95541.76;;;10.58;58.63
61814;BME280;57055;-35.296;149.168;2023-04-27T12:22:53;95535.18;;;10.46;58.80
61814;BME280;57055;-35.296;149.168;2023-04-27T12:25:22;95531.49;;;10.51;59.06
61814;BME280;57055;-35.296;149.168;2023-04-27T12:27:51;95530.04;;;10.46;58.62
61814;BME280;57055;-35.296;149.168;2023-04-27T12:30:35;95529.71;;;10.49;58.36
61814;BME280;57055;-35.296;149.168;2023-04-27T12:33:05;95524.77;;;10.41;58.44
61814;BME280;57055;-35.296;149.168;2023-04-27T12:35:33;95523.27;;;10.39;58.77
61814;BME280;57055;-35.296;149.168;2023-04-27T12:38:02;95521.86;;;10.46;59.07
61814;BME280;57055;-35.296;149.168;2023-04-27T12:40:31;95523.98;;;10.61;59.33
61814;BME280;57055;-35.296;149.168;2023-04-27T12:43:00;95523.28;;;9.97;59.41